createdAt,value
2023-07-02T00:01:53.156Z,98946.28
2023-07-02T00:04:19.966Z,98952.00
2023-07-02T00:06:47.171Z,98949.41
2023-07-02T00:09:14.257Z,98946.97
2023-07-02T00:11:42.901Z,98949.59
2023-07-02T00:14:10.643Z,98946.63
2023-07-02T00:16:39.859Z,98952.44
2023-07-02T00:19:08.505Z,98945.94
2023-07-02T00:21:35.257Z,98946.94
2023-07-02T00:24:01.857Z,98942.84
2023-07-02T00:26:28.776Z,98946.81
2023-07-02T00:28:57.062Z,98945.59
2023-07-02T00:31:24.721Z,98944.56
2023-07-02T00:33:51.931Z,98947.16
2023-07-02T00:36:19.880Z,98947.84
2023-07-02T00:38:47.446Z,98948.31
2023-07-02T00:41:14.441Z,98956.72
2023-07-02T00:43:41.038Z,98954.38
2023-07-02T00:46:07.842Z,98950.72
2023-07-02T00:48:34.511Z,98951.72
2023-07-02T00:51:01.670Z,98944.97
2023-07-02T00:53:29.660Z,98947.22
2023-07-02T00:55:56.138Z,98947.78
2023-07-02T00:58:22.947Z,98939.50
2023-07-02T01:00:49.841Z,98944.63
2023-07-02T01:03:16.785Z,98939.63
2023-07-02T01:05:43.690Z,98937.69
2023-07-02T01:08:10.285Z,98938.09
2023-07-02T01:10:38.281Z,98937.22
2023-07-02T01:13:09.764Z,98949.66
2023-07-02T01:15:37.778Z,98940.88
2023-07-02T01:18:06.082Z,98943.41
2023-07-02T01:20:35.805Z,98934.94
2023-07-02T01:23:02.613Z,98930.97
2023-07-02T01:25:29.376Z,98935.66
2023-07-02T01:27:56.391Z,98936.47
2023-07-02T01:30:23.208Z,98929.91
2023-07-02T01:32:50.193Z,98933.38
2023-07-02T01:35:17.002Z,98929.63
2023-07-02T01:37:44.990Z,98950.50
2023-07-02T01:40:11.950Z,98933.16
2023-07-02T01:42:39.133Z,98935.91
2023-07-02T01:45:06.662Z,98931.97
2023-07-02T01:47:34.971Z,98931.44
2023-07-02T01:50:03.088Z,98907.72
2023-07-02T01:52:29.762Z,98915.78
2023-07-02T01:54:57.681Z,98938.00
2023-07-02T01:57:24.402Z,98935.25
2023-07-02T01:59:51.057Z,98939.78
2023-07-02T02:02:17.673Z,98934.88
2023-07-02T02:04:44.340Z,98944.09
2023-07-02T02:07:10.943Z,98939.19
2023-07-02T02:09:37.852Z,98951.09
2023-07-02T02:12:06.747Z,98954.72
2023-07-02T02:14:33.375Z,98953.88
2023-07-02T02:17:00.048Z,98948.78
2023-07-02T02:19:26.655Z,98956.91
2023-07-02T02:21:53.275Z,98953.75
2023-07-02T02:24:20.345Z,98965.53
2023-07-02T02:26:46.981Z,98962.72
2023-07-02T02:29:15.284Z,98970.03
2023-07-02T02:31:41.910Z,98965.78
2023-07-02T02:34:08.751Z,98972.34
2023-07-02T02:36:35.371Z,98970.22
2023-07-02T02:39:02.110Z,98967.22
2023-07-02T02:41:28.604Z,98976.44
2023-07-02T02:43:55.234Z,98966.94
2023-07-02T02:46:23.684Z,98971.53
2023-07-02T02:48:50.305Z,98973.47
2023-07-02T02:51:17.173Z,98967.31
2023-07-02T02:53:43.944Z,98972.41
2023-07-02T02:56:10.522Z,98967.59
2023-07-02T02:58:37.166Z,98970.88
2023-07-02T03:01:04.072Z,98973.72
2023-07-02T03:03:32.212Z,98975.28
2023-07-02T03:05:58.881Z,98966.59
2023-07-02T03:08:25.506Z,98975.84
2023-07-02T03:10:52.232Z,98973.97
2023-07-02T03:13:18.793Z,98980.09
2023-07-02T03:15:45.414Z,98978.69
2023-07-02T03:18:12.050Z,98986.13
2023-07-02T03:20:40.020Z,98976.44
2023-07-02T03:23:06.612Z,98979.41
2023-07-02T03:25:33.498Z,98977.19
2023-07-02T03:28:00.092Z,98971.47
2023-07-02T03:30:26.693Z,98970.63
2023-07-02T03:32:53.457Z,98982.28
2023-07-02T03:35:20.110Z,98984.19
2023-07-02T03:37:48.064Z,98988.09
2023-07-02T03:40:14.885Z,98983.81
2023-07-02T03:42:42.832Z,98993.28
2023-07-02T03:45:10.230Z,98995.66
2023-07-02T03:47:36.859Z,98996.59
2023-07-02T03:50:03.862Z,99000.19
2023-07-02T03:52:30.616Z,98998.13
2023-07-02T03:54:58.593Z,99007.97
2023-07-02T03:57:25.361Z,99003.66
2023-07-02T03:59:51.939Z,99008.53
2023-07-02T04:02:18.773Z,99009.72
2023-07-02T04:04:45.476Z,99022.09
2023-07-02T04:07:12.243Z,99012.69
2023-07-02T04:09:38.870Z,99022.84
2023-07-02T04:12:08.272Z,99021.34
2023-07-02T04:14:34.908Z,99025.63
2023-07-02T04:17:03.047Z,99028.88
2023-07-02T04:19:29.626Z,99035.41
2023-07-02T04:21:56.396Z,99027.03
2023-07-02T04:24:23.150Z,99034.47
2023-07-02T04:27:14.700Z,99040.22
2023-07-02T04:29:38.237Z,99038.91
2023-07-02T04:32:05.697Z,99040.50
2023-07-02T04:34:32.706Z,99042.63
2023-07-02T04:36:59.285Z,99041.25
2023-07-02T04:39:26.009Z,99045.97
2023-07-02T04:41:52.621Z,99041.81
2023-07-02T04:44:19.748Z,99043.75
2023-07-02T04:46:48.399Z,99051.22
2023-07-02T04:49:15.052Z,99056.91
2023-07-02T04:51:41.657Z,99051.59
2023-07-02T04:54:08.359Z,99052.78
2023-07-02T04:56:34.967Z,99046.94
2023-07-02T04:59:01.546Z,99053.97
2023-07-02T05:01:29.242Z,99056.25
2023-07-02T05:03:57.248Z,99056.16
2023-07-02T05:06:23.865Z,99058.03
2023-07-02T05:08:50.452Z,99064.56
2023-07-02T05:11:17.184Z,99064.66
2023-07-02T05:13:43.799Z,99060.84
2023-07-02T05:16:10.337Z,99063.78
2023-07-02T05:18:36.930Z,99058.91
2023-07-02T05:21:04.981Z,99069.06
2023-07-02T05:23:31.726Z,99059.75
2023-07-02T05:25:58.284Z,99066.63
2023-07-02T05:28:25.282Z,99075.31
2023-07-02T05:30:51.915Z,99075.25
2023-07-02T05:33:20.043Z,99076.31
2023-07-02T05:35:46.685Z,99083.97
2023-07-02T05:38:14.916Z,99084.59
2023-07-02T05:40:41.673Z,99077.16
2023-07-02T05:43:08.349Z,99075.50
2023-07-02T05:45:34.987Z,99077.63
2023-07-02T05:48:01.604Z,99081.47
2023-07-02T05:50:28.432Z,99093.94
2023-07-02T05:52:57.096Z,99091.97
2023-07-02T05:55:25.254Z,99097.97
2023-07-02T05:57:54.493Z,99103.13
2023-07-02T06:00:21.357Z,99104.06
2023-07-02T06:02:48.084Z,99101.38
2023-07-02T06:05:14.890Z,99102.84
2023-07-02T06:07:41.722Z,99101.31
2023-07-02T06:10:08.811Z,99106.91
2023-07-02T06:12:36.636Z,99100.94
2023-07-02T06:15:03.899Z,99109.41
2023-07-02T06:17:30.547Z,99119.41
2023-07-02T06:19:57.356Z,99110.47
2023-07-02T06:22:24.072Z,99120.94
2023-07-02T06:24:50.740Z,99116.06
2023-07-02T06:27:17.499Z,99118.38
2023-07-02T06:29:45.412Z,99110.47
2023-07-02T06:32:12.013Z,99110.03
2023-07-02T06:34:38.607Z,99117.44
2023-07-02T06:37:05.769Z,99119.47
2023-07-02T06:39:32.519Z,99111.97
2023-07-02T06:41:59.104Z,99116.84
2023-07-02T06:44:25.817Z,99111.41
2023-07-02T06:46:53.911Z,99111.63
2023-07-02T06:49:20.607Z,99116.66
2023-07-02T06:51:47.233Z,99118.69
2023-07-02T06:54:13.804Z,99120.09
2023-07-02T06:56:40.646Z,99132.75
2023-07-02T06:59:07.239Z,99131.66
2023-07-02T07:01:33.814Z,99133.38
2023-07-02T07:04:02.052Z,99141.00
2023-07-02T07:06:30.059Z,99138.69
2023-07-02T07:08:56.684Z,99134.19
2023-07-02T07:11:23.378Z,99140.28
2023-07-02T07:13:50.038Z,99135.28
2023-07-02T07:16:16.807Z,99140.59
2023-07-02T07:18:44.965Z,99142.94
2023-07-02T07:21:12.944Z,99125.41
2023-07-02T07:23:41.041Z,99138.34
2023-07-02T07:26:07.772Z,99140.53
2023-07-02T07:28:34.380Z,99147.81
2023-07-02T07:31:01.076Z,99145.69
2023-07-02T07:33:27.719Z,99144.66
2023-07-02T07:35:54.470Z,99155.75
2023-07-02T07:38:22.595Z,99156.78
2023-07-02T07:40:49.771Z,99159.59
2023-07-02T07:43:16.593Z,99172.88
2023-07-02T07:45:43.440Z,99168.84
2023-07-02T07:48:10.208Z,99163.22
2023-07-02T07:50:36.847Z,99163.00
2023-07-02T07:53:03.538Z,99169.78
2023-07-02T07:55:31.508Z,99169.44
2023-07-02T07:57:58.771Z,99175.22
2023-07-02T08:00:25.491Z,99166.44
2023-07-02T08:02:52.138Z,99165.75
2023-07-02T08:05:18.780Z,99166.16
2023-07-02T08:07:45.387Z,99164.22
2023-07-02T08:10:12.007Z,99157.56
2023-07-02T08:12:40.167Z,99168.19
2023-07-02T08:15:07.902Z,99185.59
2023-07-02T08:17:34.737Z,99190.16
2023-07-02T08:20:01.379Z,99193.38
2023-07-02T08:22:28.484Z,99200.63
2023-07-02T08:24:55.072Z,99199.06
2023-07-02T08:27:21.825Z,99208.38
2023-07-02T08:29:50.147Z,99199.66
2023-07-02T08:32:16.980Z,99207.59
2023-07-02T08:34:43.626Z,99202.59
2023-07-02T08:37:10.385Z,99208.47
2023-07-02T08:39:38.414Z,99207.84
2023-07-02T08:42:05.740Z,99192.84
2023-07-02T08:44:32.543Z,99201.84
2023-07-02T08:47:00.983Z,99203.22
2023-07-02T08:49:28.106Z,99203.00
2023-07-02T08:51:55.075Z,99208.38
2023-07-02T08:54:21.951Z,99210.13
2023-07-02T08:56:48.527Z,99211.16
2023-07-02T08:59:15.505Z,99211.22
2023-07-02T09:01:48.230Z,99219.41
2023-07-02T09:04:20.582Z,99214.38
2023-07-02T09:06:47.586Z,99218.81
2023-07-02T09:09:14.228Z,99222.06
2023-07-02T09:11:51.298Z,99215.94
2023-07-02T09:14:29.995Z,99217.28
2023-07-02T09:17:07.792Z,99221.66
2023-07-02T09:19:36.719Z,99221.00
2023-07-02T09:22:04.187Z,99219.00
2023-07-02T09:24:31.776Z,99214.31
2023-07-02T09:27:00.248Z,99225.03
2023-07-02T09:29:28.418Z,99208.91
2023-07-02T09:34:30.303Z,99218.75
2023-07-02T09:36:59.624Z,99227.25
2023-07-02T09:39:28.224Z,99231.63
2023-07-02T09:41:56.260Z,99234.19
2023-07-02T09:44:23.547Z,99228.91
2023-07-02T09:46:57.004Z,99229.34
2023-07-02T09:49:24.539Z,99229.88
2023-07-02T09:51:51.791Z,99233.34
2023-07-02T09:54:20.051Z,99229.00
2023-07-02T09:56:46.904Z,99226.69
2023-07-02T09:59:13.535Z,99233.19
2023-07-02T10:01:40.407Z,99224.09
2023-07-02T10:04:13.931Z,99225.47
2023-07-02T10:06:48.455Z,99230.34
2023-07-02T10:09:15.282Z,99233.31
2023-07-02T10:11:43.573Z,99236.56
2023-07-02T10:14:10.291Z,99242.31
2023-07-02T10:16:50.139Z,99245.94
2023-07-02T10:19:16.919Z,99254.88
2023-07-02T10:21:43.677Z,99252.53
2023-07-02T10:24:12.378Z,99254.78
2023-07-02T10:26:38.989Z,99248.50
2023-07-02T10:29:07.478Z,99258.34
2023-07-02T10:31:34.260Z,99256.72
2023-07-02T10:34:00.933Z,99254.16
2023-07-02T10:36:27.561Z,99256.78
2023-07-02T10:38:54.399Z,99262.78
2023-07-02T10:41:26.617Z,99260.97
2023-07-02T10:43:53.452Z,99259.06
2023-07-02T10:46:22.461Z,99254.84
2023-07-02T10:48:53.362Z,99256.31
2023-07-02T10:51:20.185Z,99262.09
2023-07-02T10:53:48.054Z,99259.22
2023-07-02T10:56:18.828Z,99269.06
2023-07-02T10:58:45.490Z,99263.53
2023-07-02T11:01:12.687Z,99260.94
2023-07-02T11:03:41.172Z,99259.03
2023-07-02T11:06:08.023Z,99258.66
2023-07-02T11:08:37.553Z,99266.91
2023-07-02T11:11:08.335Z,99266.31
2023-07-02T11:13:35.088Z,99253.38
2023-07-02T11:16:02.378Z,99257.13
2023-07-02T11:18:32.137Z,99260.00
2023-07-02T11:21:11.017Z,99254.19
2023-07-02T11:23:37.769Z,99257.94
2023-07-02T11:26:04.860Z,99258.72
2023-07-02T11:28:33.009Z,99252.09
2023-07-02T11:31:00.138Z,99258.97
2023-07-02T11:33:36.840Z,99257.78
2023-07-02T11:36:05.740Z,99258.00
2023-07-02T11:38:35.576Z,99256.13
2023-07-02T11:41:03.914Z,99261.84
2023-07-02T11:43:30.525Z,99259.25
2023-07-02T11:45:57.130Z,99265.50
2023-07-02T11:48:23.874Z,99262.94
2023-07-02T11:50:50.483Z,99267.13
2023-07-02T11:53:18.453Z,99266.19
2023-07-02T11:55:45.345Z,99258.25
2023-07-02T11:58:11.953Z,99262.13
2023-07-02T12:00:38.581Z,99257.41
2023-07-02T12:03:05.399Z,99247.75
2023-07-02T12:05:32.220Z,99238.63
2023-07-02T12:07:58.779Z,99240.88
2023-07-02T12:10:26.879Z,99252.06
2023-07-02T12:12:53.472Z,99247.69
2023-07-02T12:15:20.195Z,99263.84
2023-07-02T12:17:47.090Z,99258.06
2023-07-02T12:20:13.832Z,99262.13
2023-07-02T12:22:40.641Z,99260.22
2023-07-02T12:25:08.132Z,99256.78
2023-07-02T12:27:36.111Z,99261.94
2023-07-02T12:30:03.018Z,99268.75
2023-07-02T12:32:29.695Z,99267.06
2023-07-02T12:34:58.037Z,99266.56
2023-07-02T12:37:24.868Z,99271.06
2023-07-02T12:39:51.494Z,99264.38
2023-07-02T12:42:18.560Z,99253.75
2023-07-02T12:44:46.625Z,99262.63
2023-07-02T12:47:13.219Z,99255.47
2023-07-02T12:49:39.952Z,99254.78
2023-07-02T12:52:06.850Z,99261.09
2023-07-02T12:54:33.854Z,99261.22
2023-07-02T12:57:00.603Z,99267.63
2023-07-02T12:59:27.194Z,99265.63
2023-07-02T13:01:55.236Z,99264.19
2023-07-02T13:04:22.122Z,99264.00
2023-07-02T13:06:48.988Z,99268.78
2023-07-02T13:09:15.547Z,99271.72
2023-07-02T13:11:42.322Z,99270.84
2023-07-02T13:14:09.100Z,99273.25
2023-07-02T13:16:35.750Z,99257.63
2023-07-02T13:19:03.909Z,99262.34
2023-07-02T13:21:30.648Z,99264.97
2023-07-02T13:23:57.269Z,99272.09
2023-07-02T13:26:24.005Z,99271.66
2023-07-02T13:28:50.749Z,99265.63
2023-07-02T13:31:17.487Z,99255.91
2023-07-02T13:33:44.666Z,99266.63
2023-07-02T13:36:12.850Z,99275.38
2023-07-02T13:38:39.637Z,99261.94
2023-07-02T13:41:06.676Z,99260.66
2023-07-02T13:43:33.400Z,99259.28
2023-07-02T13:46:00.351Z,99250.78
2023-07-02T13:48:28.788Z,99263.41
2023-07-02T13:50:55.794Z,99260.69
2023-07-02T13:53:23.808Z,99250.06
2023-07-02T13:55:51.204Z,99253.63
2023-07-02T13:58:29.380Z,99259.94
2023-07-02T14:00:58.182Z,99257.84
2023-07-02T14:03:24.922Z,99260.88
2023-07-02T14:05:52.202Z,99276.31
2023-07-02T14:08:19.263Z,99277.81
2023-07-02T14:10:45.878Z,99271.16
2023-07-02T14:13:12.585Z,99274.38
2023-07-02T14:15:39.196Z,99265.81
2023-07-02T14:18:07.641Z,99271.75
2023-07-02T14:20:34.321Z,99269.25
2023-07-02T14:23:00.988Z,99265.06
2023-07-02T14:25:40.676Z,99271.19
2023-07-02T14:28:08.607Z,99274.47
2023-07-02T14:30:35.205Z,99272.50
2023-07-02T14:33:01.803Z,99276.03
2023-07-02T14:35:30.150Z,99272.16
2023-07-02T14:37:56.710Z,99266.97
2023-07-02T14:40:23.344Z,99264.22
2023-07-02T14:42:50.354Z,99271.00
2023-07-02T14:45:16.944Z,99262.34
2023-07-02T14:47:43.962Z,99264.13
2023-07-02T14:50:11.028Z,99262.66
2023-07-02T14:52:38.995Z,99253.97
2023-07-02T14:55:06.388Z,99258.69
2023-07-02T14:57:33.204Z,99259.03
2023-07-02T14:59:59.855Z,99254.47
2023-07-02T15:02:26.791Z,99257.44
2023-07-02T15:04:53.689Z,99263.03
2023-07-02T15:07:20.618Z,99260.94
2023-07-02T15:09:48.829Z,99264.84
2023-07-02T15:12:15.434Z,99256.06
2023-07-02T15:14:42.377Z,99265.53
2023-07-02T15:17:09.057Z,99255.69
2023-07-02T15:19:35.710Z,99255.22
2023-07-02T15:22:02.207Z,99258.47
2023-07-02T15:24:28.832Z,99254.97
2023-07-02T15:26:56.993Z,99250.47
2023-07-02T15:29:23.876Z,99245.38
2023-07-02T15:31:50.482Z,99249.53
2023-07-02T15:34:17.080Z,99246.19
2023-07-02T15:36:44.148Z,99257.72
2023-07-02T15:39:10.802Z,99249.75
2023-07-02T15:41:37.401Z,99247.16
2023-07-02T15:44:06.173Z,99246.81
2023-07-02T15:46:32.818Z,99247.69
2023-07-02T15:49:00.166Z,99239.56
2023-07-02T15:51:26.768Z,99243.09
2023-07-02T15:53:53.429Z,99245.31
2023-07-02T15:56:20.047Z,99247.16
2023-07-02T15:58:46.687Z,99252.59
2023-07-02T16:01:16.877Z,99242.22
2023-07-02T16:03:44.058Z,99250.78
2023-07-02T16:06:13.101Z,99252.16
2023-07-02T16:08:39.818Z,99238.06
2023-07-02T16:11:07.502Z,99238.50
2023-07-02T16:13:34.172Z,99246.47
2023-07-02T16:16:02.208Z,99244.88
2023-07-02T16:18:30.298Z,99246.88
2023-07-02T16:20:58.640Z,99246.59
2023-07-02T16:23:25.339Z,99240.88
2023-07-02T16:25:55.607Z,99243.50
2023-07-02T16:28:22.827Z,99245.97
2023-07-02T16:30:49.581Z,99244.78
2023-07-02T16:33:17.864Z,99240.97
2023-07-02T16:35:46.749Z,99236.97
2023-07-02T16:38:13.952Z,99233.50
2023-07-02T16:40:40.814Z,99239.00
2023-07-02T16:43:07.431Z,99233.13
2023-07-02T16:45:34.387Z,99236.25
2023-07-02T16:48:01.012Z,99239.16
2023-07-02T16:50:27.861Z,99239.13
2023-07-02T16:52:55.824Z,99238.34
2023-07-02T16:55:22.589Z,99234.97
2023-07-02T16:57:49.172Z,99232.78
2023-07-02T17:00:16.624Z,99227.88
2023-07-02T17:02:43.688Z,99234.16
2023-07-02T17:05:10.387Z,99217.66
2023-07-02T17:07:37.454Z,99227.09
2023-07-02T17:10:06.917Z,99229.44
2023-07-02T17:12:33.503Z,99228.75
2023-07-02T17:15:00.099Z,99226.56
2023-07-02T17:17:27.901Z,99219.97
2023-07-02T17:19:55.905Z,99226.97
2023-07-02T17:22:24.779Z,99226.47
2023-07-02T17:24:53.283Z,99223.09
2023-07-02T17:27:23.271Z,99215.50
2023-07-02T17:29:51.225Z,99222.41
2023-07-02T17:32:17.850Z,99218.97
2023-07-02T17:34:44.837Z,99215.53
2023-07-02T17:37:12.551Z,99215.25
2023-07-02T17:39:39.397Z,99214.97
2023-07-02T17:42:06.962Z,99215.28
2023-07-02T17:44:37.026Z,99221.63
2023-07-02T17:47:06.123Z,99212.59
2023-07-02T17:49:36.639Z,99210.19
2023-07-02T17:52:03.871Z,99222.34
2023-07-02T17:54:34.982Z,99211.75
2023-07-02T17:57:04.047Z,99198.41
2023-07-02T17:59:30.655Z,99203.13
2023-07-02T18:01:58.665Z,99202.88
2023-07-02T18:04:25.333Z,99204.03
2023-07-02T18:06:51.977Z,99205.22
2023-07-02T18:09:19.136Z,99194.28
2023-07-02T18:11:45.851Z,99194.75
2023-07-02T18:14:12.438Z,99201.34
2023-07-02T18:16:39.236Z,99202.16
2023-07-02T18:19:07.240Z,99205.00
2023-07-02T18:21:33.928Z,99204.44
2023-07-02T18:24:00.592Z,99206.91
2023-07-02T18:26:27.458Z,99204.81
2023-07-02T18:28:54.272Z,99206.34
2023-07-02T18:31:21.597Z,99205.03
2023-07-02T18:33:48.296Z,99201.81
2023-07-02T18:36:18.726Z,99198.06
2023-07-02T18:38:45.609Z,99200.16
2023-07-02T18:41:12.794Z,99197.00
2023-07-02T18:43:39.645Z,99197.59
2023-07-02T18:46:07.092Z,99196.94
2023-07-02T18:48:34.286Z,99191.69
2023-07-02T18:51:05.063Z,99197.19
2023-07-02T18:53:35.275Z,99194.91
2023-07-02T18:56:03.423Z,99197.09
2023-07-02T18:58:31.332Z,99189.25
2023-07-02T19:00:58.162Z,99197.38
2023-07-02T19:03:25.171Z,99182.81
2023-07-02T19:05:52.537Z,99187.69
2023-07-02T19:08:20.080Z,99181.19
2023-07-02T19:11:01.791Z,99178.34
2023-07-02T19:13:29.100Z,99181.97
2023-07-02T19:15:56.410Z,99171.34
2023-07-02T19:18:23.342Z,99164.09
2023-07-02T19:20:50.670Z,99167.72
2023-07-02T19:23:17.893Z,99176.97
2023-07-02T19:25:45.391Z,99165.88
2023-07-02T19:28:13.692Z,99172.66
2023-07-02T19:30:40.436Z,99163.66
2023-07-02T19:33:07.295Z,99168.94
2023-07-02T19:35:34.062Z,99172.97
2023-07-02T19:38:00.943Z,99172.59
2023-07-02T19:40:27.650Z,99188.66
2023-07-02T19:42:54.388Z,99180.56
2023-07-02T19:45:22.488Z,99179.09
2023-07-02T19:47:52.419Z,99176.72
2023-07-02T19:50:19.305Z,99180.97
2023-07-02T19:52:47.289Z,99185.78
2023-07-02T19:55:13.985Z,99187.69
2023-07-02T19:57:41.086Z,99184.78
2023-07-02T20:00:08.911Z,99185.75
2023-07-02T20:02:37.832Z,99190.47
2023-07-02T20:05:05.726Z,99191.13
2023-07-02T20:07:33.352Z,99189.94
2023-07-02T20:10:00.201Z,99195.81
2023-07-02T20:12:27.151Z,99196.31
2023-07-02T20:14:53.949Z,99199.44
2023-07-02T20:17:20.642Z,99207.72
2023-07-02T20:19:49.032Z,99202.91
2023-07-02T20:22:16.245Z,99194.13
2023-07-02T20:24:43.206Z,99202.25
2023-07-02T20:27:10.375Z,99198.84
2023-07-02T20:29:37.306Z,99199.72
2023-07-02T20:32:06.096Z,99210.94
2023-07-02T20:34:36.851Z,99200.59
2023-07-02T20:37:08.040Z,99208.53
2023-07-02T20:39:35.314Z,99202.50
2023-07-02T20:42:03.707Z,99210.75
2023-07-02T20:44:33.144Z,99218.34
2023-07-02T20:46:59.888Z,99218.88
2023-07-02T20:49:26.883Z,99198.84
2023-07-02T20:51:53.498Z,99223.34
2023-07-02T20:54:21.477Z,99220.28
2023-07-02T20:56:48.856Z,99213.34
2023-07-02T20:59:15.713Z,99218.72
2023-07-02T21:01:42.648Z,99228.56
2023-07-02T21:04:10.080Z,99219.56
2023-07-02T21:06:38.915Z,99239.94
2023-07-02T21:09:08.567Z,99223.22
2023-07-02T21:11:37.196Z,99244.59
2023-07-02T21:14:05.635Z,99252.00
2023-07-02T21:16:32.447Z,99255.94
2023-07-02T21:18:59.712Z,99263.88
2023-07-02T21:21:28.799Z,99251.13
2023-07-02T21:23:55.574Z,99261.03
2023-07-02T21:26:22.235Z,99264.47
2023-07-02T21:28:50.588Z,99257.94
2023-07-02T21:31:17.456Z,99268.34
2023-07-02T21:33:45.062Z,99263.69
2023-07-02T21:36:13.088Z,99271.22
2023-07-02T21:38:40.362Z,99265.53
2023-07-02T21:41:07.993Z,99268.28
2023-07-02T21:43:35.009Z,99268.59
2023-07-02T21:46:04.873Z,99265.31
2023-07-02T21:48:31.994Z,99267.34
2023-07-02T21:50:58.898Z,99261.59
2023-07-02T21:53:25.554Z,99259.84
2023-07-02T21:55:53.070Z,99278.34
2023-07-02T21:58:20.044Z,99267.00
2023-07-02T22:00:46.869Z,99271.88
2023-07-02T22:03:18.403Z,99269.38
2023-07-02T22:05:51.458Z,99278.81
2023-07-02T22:08:18.437Z,99267.97
2023-07-02T22:10:45.036Z,99275.00
2023-07-02T22:13:14.695Z,99272.59
2023-07-02T22:15:41.401Z,99268.03
2023-07-02T22:18:08.037Z,99270.94
2023-07-02T22:20:37.431Z,99279.53
2023-07-02T22:23:05.161Z,99275.97
2023-07-02T22:25:32.675Z,99284.03
2023-07-02T22:27:59.472Z,99282.50
2023-07-02T22:30:26.591Z,99270.91
2023-07-02T22:32:53.331Z,99277.31
2023-07-02T22:35:19.942Z,99274.53
2023-07-02T22:37:48.503Z,99272.75
2023-07-02T22:40:17.811Z,99279.03
2023-07-02T22:42:46.037Z,99272.91
2023-07-02T22:45:14.575Z,99269.94
2023-07-02T22:47:42.036Z,99276.38
2023-07-02T22:50:11.420Z,99272.66
2023-07-02T22:52:38.101Z,99283.47
2023-07-02T22:55:07.469Z,99282.84
2023-07-02T22:57:35.127Z,99278.13
2023-07-02T23:00:02.364Z,99282.75
2023-07-02T23:02:29.992Z,99281.06
2023-07-02T23:04:56.768Z,99278.38
2023-07-02T23:07:23.688Z,99280.09
2023-07-02T23:09:50.280Z,99280.06
2023-07-02T23:12:18.199Z,99280.66
2023-07-02T23:14:44.929Z,99282.16
2023-07-02T23:17:11.599Z,99271.44
2023-07-02T23:19:38.323Z,99273.84
2023-07-02T23:22:05.413Z,99266.50
2023-07-02T23:24:32.071Z,99266.16
2023-07-02T23:26:58.936Z,99265.72
2023-07-02T23:29:26.984Z,99263.28
2023-07-02T23:31:53.604Z,99265.16
2023-07-02T23:34:20.364Z,99265.47
2023-07-02T23:36:47.107Z,99266.63
2023-07-02T23:39:14.483Z,99251.88
2023-07-02T23:41:41.651Z,99261.69
2023-07-02T23:44:09.501Z,99251.75
2023-07-02T23:46:37.521Z,99250.97
2023-07-02T23:49:04.348Z,99254.97
2023-07-02T23:51:31.033Z,99267.28
2023-07-02T23:53:57.964Z,99254.56
2023-07-02T23:56:24.629Z,99250.91
2023-07-02T23:58:51.206Z,99252.03
